Low temp

Not for real navigation. The accuracy of this data is not assured See disclaimer for more information



ICAO NAME COUNTRY WIND Kt GUST Kt VIS m TEMP/DEW C BARO METAR
CYUS Shepherd Bay, N. W. T. Canada 13 23 9999 -42/0 30.44 CYUS 170900Z AUTO 10013G23KT ////SM //// NCD M42/// A3044
CWEU Eureka, N. W. T. Canada 3 0 9999 -39/-43 30.62 CWEU 170900Z 10003KT 15SM IC CAVOK M39/M43 A3062 RMK SLP374
CYCO Coppermine, N. W. T. Canada 4 0 19200 -38/-42 30.77 CYCO 170900Z 33004KT 12SM IC SCT210 M38/M42 A3077 RMK CS4 SLP426
CXSE 9 0 9999 -38/-42 29.92 CXSE 170900Z AUTO 27009KT M38/M42 RMK AO1 SOG 42 8008 SLP409 T13781419
CYYH Spence Bay Airport Canada 3 0 9999 -38/-42 30.42 CYYH 170900Z 21003KT 15SM IC CAVOK M38/M42 A3042 RMK FROIN SLP310

Show more